createdAt,value
2022-08-05T00:00:17.008Z,3.28
2022-08-05T00:02:50.902Z,2.90
2022-08-05T00:06:02.817Z,2.83
2022-08-05T00:08:20.003Z,2.80
2022-08-05T00:10:53.532Z,2.90
2022-08-05T00:13:19.998Z,3.08
2022-08-05T00:15:54.913Z,2.90
2022-08-05T00:18:22.961Z,2.90
2022-08-05T00:20:50.303Z,3.10
2022-08-05T00:23:17.227Z,3.00
2022-08-05T00:25:57.360Z,3.35
2022-08-05T00:28:29.599Z,3.78
2022-08-05T00:30:56.441Z,3.53
2022-08-05T00:34:54.422Z,3.67
2022-08-05T00:36:18.526Z,3.38
2022-08-05T00:39:02.309Z,3.43
2022-08-05T00:41:51.408Z,3.33
2022-08-05T00:44:18.958Z,3.10
2022-08-05T00:46:47.404Z,3.38
2022-08-05T00:49:20.895Z,3.25
2022-08-05T00:51:52.013Z,3.30
2022-08-05T00:54:18.852Z,3.78
2022-08-05T00:56:51.419Z,3.90
2022-08-05T00:59:18.428Z,3.70
2022-08-05T01:01:48.544Z,3.10
2022-08-05T01:04:16.163Z,3.40
2022-08-05T01:06:48.968Z,3.00
2022-08-05T01:09:19.836Z,3.13
2022-08-05T01:11:51.727Z,3.17
2022-08-05T01:14:28.070Z,3.40
2022-08-05T01:17:29.637Z,3.22
2022-08-05T01:20:25.058Z,3.17
2022-08-05T01:23:24.579Z,2.97
2022-08-05T01:26:21.452Z,3.25
2022-08-05T01:29:05.260Z,3.63
2022-08-05T01:31:48.101Z,3.17
2022-08-05T01:34:35.855Z,3.20
2022-08-05T01:37:07.938Z,3.60
2022-08-05T01:39:47.756Z,3.38
2022-08-05T01:42:17.375Z,3.35
2022-08-05T01:44:45.674Z,3.60
2022-08-05T01:50:00.110Z,3.30
2022-08-05T01:52:28.893Z,2.90
2022-08-05T01:55:00.477Z,3.20
2022-08-05T01:58:13.736Z,3.30
2022-08-05T02:00:18.722Z,3.05
2022-08-05T02:02:59.916Z,3.10
2022-08-05T02:05:35.987Z,3.28
2022-08-05T02:08:04.196Z,3.20
2022-08-05T02:24:31.723Z,3.22
2022-08-05T02:27:10.262Z,3.60
2022-08-05T02:29:58.615Z,3.50
2022-08-05T02:32:30.606Z,3.22
2022-08-05T02:35:13.526Z,3.55
2022-08-05T02:37:47.594Z,3.50
2022-08-05T02:40:20.531Z,3.30
2022-08-05T02:42:52.779Z,3.33
2022-08-05T02:45:21.255Z,3.30
2022-08-05T02:48:06.970Z,3.28
2022-08-05T02:50:43.868Z,3.47
2022-08-05T02:53:18.803Z,3.30
2022-08-05T02:55:53.730Z,3.30
2022-08-05T02:58:23.091Z,3.45
2022-08-05T03:00:56.203Z,3.00
2022-08-05T03:03:23.549Z,3.30
2022-08-05T03:06:54.785Z,3.42
2022-08-05T03:08:42.627Z,3.00
2022-08-05T03:11:54.694Z,3.15
2022-08-05T03:14:09.859Z,3.33
2022-08-05T03:16:40.522Z,3.03
2022-08-05T03:19:17.218Z,3.30
2022-08-05T03:21:53.606Z,3.10
2022-08-05T03:24:29.968Z,2.90
2022-08-05T03:26:59.010Z,3.33
2022-08-05T03:29:59.605Z,3.38
2022-08-05T03:32:14.388Z,3.08
2022-08-05T03:34:42.360Z,3.10
2022-08-05T03:37:18.850Z,2.88
2022-08-05T03:39:58.975Z,2.92
2022-08-05T03:42:27.200Z,3.00
2022-08-05T03:44:55.679Z,3.45
2022-08-05T03:47:24.096Z,3.28
2022-08-05T03:49:51.515Z,3.60
2022-08-05T03:52:37.066Z,3.50
2022-08-05T03:56:03.680Z,3.88
2022-08-05T03:58:10.655Z,3.63
2022-08-05T04:00:41.965Z,4.03
2022-08-05T04:03:26.650Z,3.55
2022-08-05T04:05:57.906Z,3.20
2022-08-05T04:08:30.082Z,3.25
2022-08-05T04:11:04.056Z,3.28
2022-08-05T04:13:49.949Z,3.60
2022-08-05T04:16:25.254Z,3.28
2022-08-05T04:18:58.862Z,3.20
2022-08-05T04:22:10.119Z,3.45
2022-08-05T04:24:18.711Z,3.58
2022-08-05T04:26:46.690Z,3.40
2022-08-05T04:29:13.193Z,2.70
2022-08-05T04:31:40.890Z,3.33
2022-08-05T04:34:31.756Z,3.05
2022-08-05T04:36:54.427Z,3.33
2022-08-05T04:39:21.696Z,3.25
2022-08-05T04:41:48.581Z,3.10
2022-08-05T04:44:21.440Z,3.00
2022-08-05T04:46:56.835Z,3.30
2022-08-05T04:49:39.169Z,3.35
2022-08-05T04:52:11.764Z,3.33
2022-08-05T04:54:38.203Z,3.63
2022-08-05T04:57:04.757Z,3.50
2022-08-05T04:59:39.168Z,3.40
2022-08-05T05:02:37.345Z,3.58
2022-08-05T05:05:01.736Z,3.45
2022-08-05T05:07:29.687Z,3.15
2022-08-05T05:09:59.061Z,3.50
2022-08-05T05:12:29.076Z,3.08
2022-08-05T05:14:55.548Z,3.25
2022-08-05T05:17:24.620Z,3.50
2022-08-05T05:20:09.792Z,3.60
2022-08-05T05:22:40.771Z,3.22
2022-08-05T05:25:16.796Z,2.85
2022-08-05T05:27:53.677Z,3.00
2022-08-05T05:30:31.496Z,2.72
2022-08-05T05:33:09.339Z,2.88
2022-08-05T05:35:43.618Z,3.13
2022-08-05T05:38:13.353Z,2.78
2022-08-05T05:40:48.019Z,2.75
2022-08-05T05:43:27.544Z,3.13
2022-08-05T05:46:03.305Z,2.85
2022-08-05T05:48:31.597Z,2.88
2022-08-05T05:50:58.099Z,3.13
2022-08-05T05:53:24.532Z,3.00
2022-08-05T05:56:00.762Z,2.90
2022-08-05T05:58:31.514Z,2.80
2022-08-05T06:01:12.397Z,3.10
2022-08-05T06:04:00.924Z,3.22
2022-08-05T06:06:30.802Z,3.33
2022-08-05T06:08:59.264Z,3.22
2022-08-05T06:11:25.944Z,3.03
2022-08-05T06:13:54.148Z,2.80
2022-08-05T06:16:29.590Z,2.95
2022-08-05T06:21:36.786Z,2.70
2022-08-05T06:24:11.298Z,2.67
2022-08-05T06:26:52.121Z,2.60
2022-08-05T06:29:45.330Z,2.47
2022-08-05T06:32:25.292Z,2.42
2022-08-05T06:34:56.776Z,2.47
2022-08-05T06:37:39.462Z,2.33
2022-08-05T06:40:18.079Z,2.35
2022-08-05T06:42:52.260Z,2.42
2022-08-05T06:45:44.105Z,3.15
2022-08-05T06:48:47.060Z,2.60
2022-08-05T06:50:56.996Z,3.00
2022-08-05T06:53:28.690Z,2.58
2022-08-05T06:55:59.885Z,2.60
2022-08-05T06:58:34.697Z,2.65
2022-08-05T07:01:05.059Z,2.60
2022-08-05T07:03:33.202Z,2.40
2022-08-05T07:06:05.786Z,2.50
2022-08-05T07:08:47.822Z,2.70
2022-08-05T07:11:22.130Z,2.40
2022-08-05T07:14:20.054Z,2.60
2022-08-05T07:18:08.176Z,2.40
2022-08-05T07:22:33.032Z,2.40
2022-08-05T07:25:21.697Z,2.95
2022-08-05T07:27:58.772Z,2.60
2022-08-05T07:30:33.638Z,2.60
2022-08-05T07:33:05.162Z,2.40
2022-08-05T07:36:03.869Z,2.40
2022-08-05T07:38:33.991Z,2.65
2022-08-05T07:41:35.045Z,2.47
2022-08-05T07:43:58.967Z,2.40
2022-08-05T07:46:30.638Z,2.40
2022-08-05T07:49:02.591Z,2.15
2022-08-05T07:51:36.296Z,2.03
2022-08-05T07:54:04.798Z,2.10
2022-08-05T07:57:02.739Z,2.30
2022-08-05T07:59:18.018Z,2.10
2022-08-05T08:01:51.787Z,1.88
2022-08-05T08:04:37.598Z,2.20
2022-08-05T08:07:07.415Z,2.15
2022-08-05T08:09:34.886Z,1.77
2022-08-05T08:12:07.760Z,2.08
2022-08-05T08:14:46.779Z,2.13
2022-08-05T08:17:16.270Z,1.88
2022-08-05T08:20:21.418Z,1.90
2022-08-05T08:22:32.307Z,1.90
2022-08-05T08:25:03.309Z,2.00
2022-08-05T08:27:37.988Z,1.70
2022-08-05T08:30:18.991Z,1.90
2022-08-05T08:32:56.843Z,1.90
2022-08-05T08:35:26.696Z,1.90
2022-08-05T08:37:56.348Z,2.15
2022-08-05T08:40:23.685Z,1.83
2022-08-05T08:42:52.993Z,1.80
2022-08-05T08:45:27.182Z,1.90
2022-08-05T08:48:06.885Z,1.80
2022-08-05T08:51:03.793Z,1.85
2022-08-05T08:53:37.231Z,2.03
2022-08-05T08:56:06.160Z,2.30
2022-08-05T08:58:43.476Z,1.65
2022-08-05T09:01:15.746Z,2.00
2022-08-05T09:03:54.421Z,1.85
2022-08-05T09:06:24.235Z,2.10
2022-08-05T09:08:55.900Z,2.00
2022-08-05T09:11:51.671Z,1.95
2022-08-05T09:14:58.582Z,1.80
2022-08-05T09:16:57.921Z,1.83
2022-08-05T09:19:36.204Z,2.08
2022-08-05T09:22:23.393Z,1.90
2022-08-05T09:25:01.049Z,1.95
2022-08-05T09:28:04.601Z,1.80
2022-08-05T09:30:23.490Z,1.88
2022-08-05T09:32:51.491Z,2.00
2022-08-05T09:35:26.747Z,1.92
2022-08-05T09:38:16.885Z,1.90
2022-08-05T09:40:52.678Z,1.98
2022-08-05T09:43:41.158Z,2.10
2022-08-05T09:46:28.070Z,2.22
2022-08-05T09:51:42.235Z,2.00
2022-08-05T09:54:09.510Z,2.00
2022-08-05T09:56:38.500Z,1.95
2022-08-05T09:59:17.025Z,1.80
2022-08-05T10:01:46.482Z,2.10
2022-08-05T10:04:15.946Z,1.95
2022-08-05T10:06:59.086Z,2.15
2022-08-05T10:09:27.987Z,2.08
2022-08-05T10:11:55.008Z,1.77
2022-08-05T10:14:32.256Z,1.90
2022-08-05T10:17:39.816Z,1.90
2022-08-05T10:20:09.833Z,1.90
2022-08-05T10:22:38.076Z,2.13
2022-08-05T10:25:10.270Z,1.88
2022-08-05T10:28:13.662Z,1.88
2022-08-05T10:31:20.651Z,1.80
2022-08-05T10:33:15.200Z,2.00
2022-08-05T10:35:44.072Z,2.08
2022-08-05T10:38:13.272Z,2.17
2022-08-05T10:40:43.461Z,2.03
2022-08-05T10:43:35.953Z,2.10
2022-08-05T10:46:06.802Z,2.17
2022-08-05T10:48:57.070Z,2.10
2022-08-05T10:51:28.391Z,2.10
2022-08-05T10:54:05.808Z,2.00
2022-08-05T10:56:53.303Z,2.13
2022-08-05T11:00:03.770Z,2.00
2022-08-05T11:02:37.597Z,2.10
2022-08-05T11:05:08.599Z,2.30
2022-08-05T11:08:02.732Z,2.25
2022-08-05T11:10:37.066Z,2.42
2022-08-05T11:13:05.521Z,2.35
2022-08-05T11:15:59.089Z,2.30
2022-08-05T11:18:33.954Z,2.20
2022-08-05T11:21:02.789Z,2.10
2022-08-05T11:24:04.590Z,2.60
2022-08-05T11:26:40.863Z,2.30
2022-08-05T11:29:40.120Z,2.25
2022-08-05T11:32:27.210Z,2.03
2022-08-05T11:34:55.282Z,2.20
2022-08-05T11:38:30.466Z,2.40
2022-08-05T11:41:35.621Z,2.47
2022-08-05T11:47:09.597Z,2.28
2022-08-05T11:49:33.761Z,2.30
2022-08-05T11:52:01.486Z,2.60
2022-08-05T11:54:37.995Z,2.42
2022-08-05T11:57:08.497Z,2.10
2022-08-05T12:02:30.272Z,2.30
2022-08-05T12:05:00.325Z,2.30
2022-08-05T12:08:08.420Z,2.45
2022-08-05T12:10:22.806Z,2.58
2022-08-05T12:12:59.702Z,2.22
2022-08-05T12:15:37.833Z,2.42
2022-08-05T12:18:11.962Z,2.53
2022-08-05T12:20:39.343Z,2.20
2022-08-05T12:23:09.586Z,2.33
2022-08-05T12:25:51.961Z,2.55
2022-08-05T12:28:37.830Z,2.45
2022-08-05T12:31:05.367Z,2.30
2022-08-05T12:33:36.537Z,2.30
2022-08-05T12:36:07.915Z,2.33
2022-08-05T12:38:37.968Z,2.40
2022-08-05T12:41:13.318Z,2.30
2022-08-05T12:43:58.688Z,2.40
2022-08-05T12:46:29.758Z,2.22
2022-08-05T12:49:12.883Z,2.08
2022-08-05T12:52:12.602Z,2.40
2022-08-05T12:54:50.996Z,2.53
2022-08-05T12:57:19.535Z,2.67
2022-08-05T13:02:03.683Z,2.30
2022-08-05T13:02:39.837Z,2.53
2022-08-05T13:05:07.155Z,2.28
2022-08-05T13:07:59.287Z,2.45
2022-08-05T13:10:20.612Z,2.55
2022-08-05T13:12:51.256Z,2.50
2022-08-05T13:15:41.810Z,2.60
2022-08-05T13:18:20.222Z,2.70
2022-08-05T13:20:49.130Z,2.50
2022-08-05T13:23:18.289Z,2.40
2022-08-05T13:25:52.664Z,2.50
2022-08-05T13:28:26.892Z,2.38
2022-08-05T13:30:53.742Z,2.40
2022-08-05T13:34:21.306Z,2.60
2022-08-05T13:36:09.250Z,2.40
2022-08-05T13:38:38.514Z,2.63
2022-08-05T13:41:09.362Z,2.33
2022-08-05T13:43:45.446Z,2.80
2022-08-05T13:47:01.726Z,2.50
2022-08-05T13:49:12.628Z,2.55
2022-08-05T13:51:46.614Z,2.50
2022-08-05T13:54:15.106Z,2.85
2022-08-05T13:56:45.415Z,2.45
2022-08-05T13:59:24.032Z,2.53
2022-08-05T14:01:57.874Z,2.80
2022-08-05T14:04:53.934Z,2.45
2022-08-05T14:07:55.781Z,2.40
2022-08-05T14:22:08.983Z,2.60
2022-08-05T14:24:19.403Z,2.88
2022-08-05T14:27:02.010Z,2.60
2022-08-05T14:29:32.560Z,3.03
2022-08-05T14:32:12.470Z,2.80
2022-08-05T14:34:42.619Z,2.67
2022-08-05T14:37:09.128Z,2.55
2022-08-05T14:39:50.272Z,2.50
2022-08-05T14:42:29.346Z,2.60
2022-08-05T14:44:56.699Z,2.70
2022-08-05T14:48:02.613Z,2.65
2022-08-05T14:50:14.247Z,2.65
2022-08-05T14:52:52.943Z,2.70
2022-08-05T14:55:20.305Z,2.50
2022-08-05T14:57:54.803Z,2.50
2022-08-05T15:00:28.182Z,2.58
2022-08-05T15:02:56.471Z,2.58
2022-08-05T15:05:29.536Z,3.10
2022-08-05T15:08:06.214Z,2.88
2022-08-05T15:10:41.407Z,2.95
2022-08-05T15:13:10.082Z,2.90
2022-08-05T15:15:54.522Z,2.83
2022-08-05T15:18:23.308Z,2.70
2022-08-05T15:20:49.978Z,2.75
2022-08-05T15:23:17.625Z,2.85
2022-08-05T15:25:53.364Z,2.80
2022-08-05T15:28:27.221Z,3.05
2022-08-05T15:30:54.916Z,2.92
2022-08-05T15:34:04.045Z,2.88
2022-08-05T15:36:16.884Z,3.03
2022-08-05T15:38:50.698Z,2.70
2022-08-05T15:41:57.670Z,2.67
2022-08-05T15:44:24.196Z,3.03
2022-08-05T15:46:52.593Z,2.90
2022-08-05T15:49:27.330Z,3.15
2022-08-05T15:52:16.422Z,3.00
2022-08-05T15:54:43.623Z,2.80
2022-08-05T15:57:11.012Z,3.22
2022-08-05T15:59:39.480Z,3.10
2022-08-05T16:02:09.438Z,3.10
2022-08-05T16:04:41.078Z,3.38
2022-08-05T16:07:10.559Z,3.58
2022-08-05T16:09:37.462Z,2.80
2022-08-05T16:12:09.123Z,2.80
2022-08-05T16:14:35.992Z,2.90
2022-08-05T16:17:03.335Z,3.03
2022-08-05T16:20:05.607Z,2.90
2022-08-05T16:24:52.202Z,2.83
2022-08-05T16:27:18.953Z,3.33
2022-08-05T16:29:50.821Z,3.20
2022-08-05T16:32:18.351Z,2.90
2022-08-05T16:34:54.943Z,2.95
2022-08-05T16:38:02.383Z,2.72
2022-08-05T16:42:55.020Z,2.53
2022-08-05T16:46:04.916Z,3.10
2022-08-05T16:48:08.332Z,2.90
2022-08-05T16:50:37.763Z,3.00
2022-08-05T16:53:12.322Z,2.72
2022-08-05T16:55:48.797Z,2.90
2022-08-05T16:58:15.364Z,3.33
2022-08-05T17:00:47.031Z,3.03
2022-08-05T17:03:20.464Z,2.80
2022-08-05T17:05:54.008Z,3.03
2022-08-05T17:08:35.986Z,2.78
2022-08-05T17:11:16.872Z,2.80
2022-08-05T17:13:44.660Z,2.90
2022-08-05T17:16:32.883Z,2.80
2022-08-05T17:18:58.303Z,3.00
2022-08-05T17:21:24.725Z,2.90
2022-08-05T17:24:05.450Z,2.85
2022-08-05T17:26:39.019Z,2.30
2022-08-05T17:29:10.152Z,2.75
2022-08-05T17:31:56.976Z,2.60
2022-08-05T17:34:29.812Z,2.72
2022-08-05T17:36:59.252Z,3.10
2022-08-05T17:39:33.955Z,2.67
2022-08-05T17:42:17.418Z,2.72
2022-08-05T17:44:50.375Z,2.55
2022-08-05T17:47:22.837Z,2.70
2022-08-05T17:49:59.640Z,2.70
2022-08-05T17:52:27.707Z,2.50
2022-08-05T17:54:54.794Z,2.55
2022-08-05T17:57:21.919Z,2.38
2022-08-05T18:00:05.040Z,2.78
2022-08-05T18:02:34.079Z,2.80
2022-08-05T18:05:03.021Z,2.90
2022-08-05T18:07:41.528Z,2.63
2022-08-05T18:10:11.025Z,2.88
2022-08-05T18:12:38.685Z,2.97
2022-08-05T18:15:06.271Z,2.60
2022-08-05T18:18:00.988Z,2.70
2022-08-05T18:20:29.638Z,3.13
2022-08-05T18:23:00.699Z,5.85
2022-08-05T18:25:36.921Z,3.10
2022-08-05T18:28:06.365Z,2.85
2022-08-05T18:30:36.712Z,3.03
2022-08-05T18:33:07.329Z,2.58
2022-08-05T18:35:59.639Z,2.95
2022-08-05T18:38:26.327Z,3.25
2022-08-05T18:41:56.901Z,2.42
2022-08-05T18:43:43.101Z,2.50
2022-08-05T18:46:19.889Z,2.83
2022-08-05T18:48:52.009Z,3.00
2022-08-05T18:52:06.151Z,2.60
2022-08-05T18:54:25.538Z,2.70
2022-08-05T18:56:52.233Z,2.45
2022-08-05T18:59:43.238Z,2.20
2022-08-05T19:02:27.093Z,2.60
2022-08-05T19:05:02.354Z,2.38
2022-08-05T19:07:45.411Z,2.33
2022-08-05T19:10:14.369Z,2.63
2022-08-05T19:12:41.292Z,2.85
2022-08-05T19:15:10.597Z,2.60
2022-08-05T19:18:08.366Z,2.65
2022-08-05T19:20:41.725Z,2.67
2022-08-05T19:24:06.251Z,2.80
2022-08-05T19:26:02.634Z,2.60
2022-08-05T19:28:30.820Z,2.88
2022-08-05T19:30:57.533Z,3.00
2022-08-05T19:33:35.858Z,2.80
2022-08-05T19:36:06.988Z,2.78
2022-08-05T19:38:35.508Z,2.75
2022-08-05T19:41:02.275Z,2.78
2022-08-05T19:44:05.830Z,3.20
2022-08-05T19:46:30.221Z,3.00
2022-08-05T19:49:01.300Z,3.25
2022-08-05T19:52:05.490Z,3.03
2022-08-05T19:54:26.987Z,3.25
2022-08-05T19:56:57.943Z,3.00
2022-08-05T19:59:55.837Z,3.22
2022-08-05T20:02:12.566Z,2.97
2022-08-05T20:04:42.985Z,3.17
2022-08-05T20:07:13.442Z,3.75
2022-08-05T20:09:53.786Z,3.47
2022-08-05T20:12:22.495Z,3.60
2022-08-05T20:14:52.225Z,3.30
2022-08-05T20:17:19.946Z,3.72
2022-08-05T20:19:50.935Z,3.42
2022-08-05T20:22:24.709Z,3.80
2022-08-05T20:24:53.826Z,4.05
2022-08-05T20:27:21.014Z,3.47
2022-08-05T20:29:58.298Z,3.65
2022-08-05T20:32:26.144Z,3.88
2022-08-05T20:34:52.787Z,3.97
2022-08-05T20:38:04.937Z,3.80
2022-08-05T20:40:06.859Z,3.90
2022-08-05T20:42:33.379Z,3.60
2022-08-05T20:45:02.003Z,4.53
2022-08-05T20:47:31.978Z,3.85
2022-08-05T20:49:59.524Z,3.88
2022-08-05T20:52:28.350Z,3.78
2022-08-05T20:55:54.994Z,3.40
2022-08-05T20:57:44.334Z,4.18
2022-08-05T21:00:41.432Z,4.05
2022-08-05T21:03:04.604Z,4.28
2022-08-05T21:05:47.901Z,4.25
2022-08-05T21:08:26.708Z,3.83
2022-08-05T21:11:00.044Z,4.75
2022-08-05T21:13:48.353Z,4.03
2022-08-05T21:16:13.783Z,4.18
2022-08-05T21:18:43.010Z,4.18
2022-08-05T21:21:12.131Z,3.60
2022-08-05T21:23:39.004Z,4.18
2022-08-05T21:26:08.145Z,3.80
2022-08-05T21:28:39.982Z,3.80
2022-08-05T21:31:14.255Z,4.00
2022-08-05T21:33:43.124Z,3.85
2022-08-05T21:36:14.457Z,4.07
2022-08-05T21:38:54.720Z,3.80
2022-08-05T21:41:21.264Z,3.90
2022-08-05T21:44:01.672Z,4.50
2022-08-05T21:46:30.161Z,4.30
2022-08-05T21:48:57.134Z,3.97
2022-08-05T21:52:22.028Z,4.28
2022-08-05T21:54:12.963Z,4.57
2022-08-05T21:56:44.484Z,3.95
2022-08-05T21:59:24.433Z,4.00
2022-08-05T22:01:54.596Z,4.40
2022-08-05T22:04:25.511Z,4.30
2022-08-05T22:06:52.496Z,3.97
2022-08-05T22:09:21.119Z,4.40
2022-08-05T22:11:48.353Z,4.13
2022-08-05T22:14:33.536Z,4.22
2022-08-05T22:17:03.818Z,4.00
2022-08-05T22:20:00.424Z,4.13
2022-08-05T22:22:27.264Z,4.50
2022-08-05T22:25:31.231Z,4.13
2022-08-05T22:28:12.090Z,4.35
2022-08-05T22:30:55.542Z,4.00
2022-08-05T22:33:56.615Z,3.78
2022-08-05T22:36:11.476Z,4.05
2022-08-05T22:38:42.553Z,3.92
2022-08-05T22:41:10.188Z,3.92
2022-08-05T22:43:38.344Z,4.25
2022-08-05T22:46:13.052Z,3.90
2022-08-05T22:48:41.136Z,3.90
2022-08-05T22:51:08.415Z,4.22
2022-08-05T22:53:42.616Z,3.80
2022-08-05T22:56:16.534Z,4.22
2022-08-05T22:58:43.620Z,4.38
2022-08-05T23:01:10.436Z,4.15
2022-08-05T23:03:58.021Z,4.30
2022-08-05T23:06:26.202Z,3.97
2022-08-05T23:08:52.968Z,4.10
2022-08-05T23:11:19.463Z,3.92
2022-08-05T23:13:45.928Z,3.83
2022-08-05T23:16:26.119Z,4.45
2022-08-05T23:19:00.104Z,4.05
2022-08-05T23:21:42.476Z,4.13
2022-08-05T23:24:11.296Z,4.18
2022-08-05T23:26:38.158Z,4.53
2022-08-05T23:29:05.219Z,4.60
2022-08-05T23:31:31.824Z,4.22
2022-08-05T23:34:05.217Z,4.38
2022-08-05T23:36:38.713Z,4.20
2022-08-05T23:39:08.189Z,4.60
2022-08-05T23:41:37.322Z,4.10
2022-08-05T23:44:08.815Z,4.30
2022-08-05T23:46:37.408Z,4.38
2022-08-05T23:49:16.422Z,4.20
2022-08-05T23:52:03.070Z,4.03
2022-08-05T23:54:38.461Z,3.88
2022-08-05T23:57:06.788Z,3.83
